Terminal Aerodrome Forecast
Issued by NWS La Crosse, WI

Home | Current Version | Previous Version | Text Only | Print | Product List | Glossary On
Versions: 1 2 3 4 5 6 7 8 9 10 11 12 13 14 15 16 17 18 19 20 21 22 23 24
000
FTUS43 KARX 062026 AAA
TAFLSE
TAF AMD
KLSE 062026Z 0620/0718 25013G22KT P6SM OVC025
     FM070100 25015G22KT P6SM BKN035
     FM071300 26015KT P6SM BKN040=

USA.gov is the U.S. government's official web portal to all federal, state and local government web resources and services.